sensor_id;sensor_type;location;lat;lon;timestamp;pressure;altitude;pressure_sealevel;temperature;humidity
42691;BME280;28306;55.744;37.578;2023-04-25T00:01:34;99648.00;;;24.88;20.78
42691;BME280;28306;55.744;37.578;2023-04-25T00:04:01;99649.66;;;24.94;19.99
42691;BME280;28306;55.744;37.578;2023-04-25T00:06:28;99652.38;;;24.94;20.66
42691;BME280;28306;55.744;37.578;2023-04-25T00:08:55;99656.44;;;24.92;20.36
42691;BME280;28306;55.744;37.578;2023-04-25T00:11:21;99655.91;;;24.90;20.60
42691;BME280;28306;55.744;37.578;2023-04-25T00:13:47;99648.28;;;24.87;20.80
42691;BME280;28306;55.744;37.578;2023-04-25T00:16:13;99652.56;;;24.72;20.69
42691;BME280;28306;55.744;37.578;2023-04-25T00:18:41;99655.00;;;24.69;20.90
42691;BME280;28306;55.744;37.578;2023-04-25T00:21:07;99661.81;;;24.76;21.38
42691;BME280;28306;55.744;37.578;2023-04-25T00:23:32;99666.44;;;24.76;21.22
42691;BME280;28306;55.744;37.578;2023-04-25T00:25:58;99667.00;;;24.78;21.13
42691;BME280;28306;55.744;37.578;2023-04-25T00:28:23;99668.38;;;24.86;21.05
42691;BME280;28306;55.744;37.578;2023-04-25T00:30:48;99662.69;;;24.87;20.64
42691;BME280;28306;55.744;37.578;2023-04-25T00:33:14;99666.25;;;24.88;21.22
42691;BME280;28306;55.744;37.578;2023-04-25T00:35:39;99652.06;;;24.86;21.16
42691;BME280;28306;55.744;37.578;2023-04-25T00:38:05;99657.75;;;24.79;21.03
42691;BME280;28306;55.744;37.578;2023-04-25T00:40:30;99657.16;;;24.72;20.88
42691;BME280;28306;55.744;37.578;2023-04-25T00:42:56;99659.88;;;24.67;21.73
42691;BME280;28306;55.744;37.578;2023-04-25T00:45:21;99650.09;;;24.66;21.88
42691;BME280;28306;55.744;37.578;2023-04-25T00:47:49;99650.88;;;24.61;22.07
42691;BME280;28306;55.744;37.578;2023-04-25T00:50:15;99638.22;;;24.44;22.32
42691;BME280;28306;55.744;37.578;2023-04-25T00:52:41;99640.16;;;24.49;21.91
42691;BME280;28306;55.744;37.578;2023-04-25T00:55:08;99643.81;;;24.65;21.13
42691;BME280;28306;55.744;37.578;2023-04-25T00:57:34;99656.16;;;24.83;21.03
42691;BME280;28306;55.744;37.578;2023-04-25T00:59:59;99651.78;;;24.77;22.55
42691;BME280;28306;55.744;37.578;2023-04-25T01:02:27;99650.09;;;24.66;22.87
42691;BME280;28306;55.744;37.578;2023-04-25T01:04:52;99646.75;;;24.58;23.14
42691;BME280;28306;55.744;37.578;2023-04-25T01:07:18;99649.59;;;24.36;23.18
42691;BME280;28306;55.744;37.578;2023-04-25T01:09:44;99649.56;;;24.31;22.56
42691;BME280;28306;55.744;37.578;2023-04-25T01:12:10;99649.34;;;24.43;22.27
42691;BME280;28306;55.744;37.578;2023-04-25T01:14:36;99648.69;;;24.63;21.95
42691;BME280;28306;55.744;37.578;2023-04-25T01:17:01;99646.25;;;24.67;23.32
42691;BME280;28306;55.744;37.578;2023-04-25T01:19:27;99649.50;;;24.63;22.31
42691;BME280;28306;55.744;37.578;2023-04-25T01:21:53;99647.56;;;24.59;22.50
42691;BME280;28306;55.744;37.578;2023-04-25T01:24:19;99644.47;;;24.45;23.41
42691;BME280;28306;55.744;37.578;2023-04-25T01:26:44;99638.91;;;24.24;23.38
42691;BME280;28306;55.744;37.578;2023-04-25T01:29:20;99640.97;;;24.12;23.69
42691;BME280;28306;55.744;37.578;2023-04-25T01:31:46;99632.31;;;24.15;23.06
42691;BME280;28306;55.744;37.578;2023-04-25T01:34:12;99627.19;;;24.19;22.86
42691;BME280;28306;55.744;37.578;2023-04-25T01:36:38;99626.94;;;24.20;23.89
42691;BME280;28306;55.744;37.578;2023-04-25T01:39:05;99629.06;;;24.18;23.71
42691;BME280;28306;55.744;37.578;2023-04-25T01:41:31;99622.28;;;24.21;23.20
42691;BME280;28306;55.744;37.578;2023-04-25T01:43:57;99627.50;;;24.27;22.89
42691;BME280;28306;55.744;37.578;2023-04-25T01:46:22;99630.53;;;24.31;22.71
42691;BME280;28306;55.744;37.578;2023-04-25T01:48:48;99626.22;;;24.40;22.56
42691;BME280;28306;55.744;37.578;2023-04-25T01:51:13;99628.72;;;24.47;22.38
42691;BME280;28306;55.744;37.578;2023-04-25T01:53:40;99622.75;;;24.50;22.19
42691;BME280;28306;55.744;37.578;2023-04-25T01:56:06;99629.81;;;24.51;23.04
42691;BME280;28306;55.744;37.578;2023-04-25T01:58:34;99628.66;;;24.42;23.33
42691;BME280;28306;55.744;37.578;2023-04-25T02:01:08;99622.13;;;24.38;22.97
42691;BME280;28306;55.744;37.578;2023-04-25T02:03:43;99624.03;;;24.37;23.11
42691;BME280;28306;55.744;37.578;2023-04-25T02:06:17;99621.03;;;24.39;23.31
42691;BME280;28306;55.744;37.578;2023-04-25T02:08:48;99620.47;;;24.32;23.97
42691;BME280;28306;55.744;37.578;2023-04-25T02:11:13;99615.56;;;24.34;22.71
42691;BME280;28306;55.744;37.578;2023-04-25T02:13:49;99614.00;;;24.43;22.73
42691;BME280;28306;55.744;37.578;2023-04-25T02:16:34;99608.69;;;24.21;23.05
42691;BME280;28306;55.744;37.578;2023-04-25T02:19:01;99610.50;;;24.05;22.94
42691;BME280;28306;55.744;37.578;2023-04-25T02:21:29;99611.81;;;24.02;23.10
42691;BME280;28306;55.744;37.578;2023-04-25T02:23:56;99607.19;;;23.98;23.21
42691;BME280;28306;55.744;37.578;2023-04-25T02:26:21;99610.25;;;24.06;22.82
42691;BME280;28306;55.744;37.578;2023-04-25T02:28:50;99614.13;;;24.16;23.00
42691;BME280;28306;55.744;37.578;2023-04-25T02:31:18;99616.06;;;24.25;23.06
42691;BME280;28306;55.744;37.578;2023-04-25T02:33:43;99613.88;;;24.22;23.42
42691;BME280;28306;55.744;37.578;2023-04-25T02:36:09;99610.09;;;24.23;22.87
42691;BME280;28306;55.744;37.578;2023-04-25T02:38:34;99612.28;;;24.26;23.08
42691;BME280;28306;55.744;37.578;2023-04-25T02:41:03;99614.22;;;24.31;23.19
42691;BME280;28306;55.744;37.578;2023-04-25T02:43:29;99606.63;;;24.33;23.25
42691;BME280;28306;55.744;37.578;2023-04-25T02:45:54;99610.13;;;24.28;22.75
42691;BME280;28306;55.744;37.578;2023-04-25T02:48:20;99616.38;;;24.29;22.96
42691;BME280;28306;55.744;37.578;2023-04-25T02:50:47;99618.59;;;24.37;22.34
42691;BME280;28306;55.744;37.578;2023-04-25T02:53:13;99614.56;;;24.45;23.05
42691;BME280;28306;55.744;37.578;2023-04-25T02:55:44;99614.03;;;24.48;22.54
42691;BME280;28306;55.744;37.578;2023-04-25T02:58:10;99609.19;;;24.55;22.25
42691;BME280;28306;55.744;37.578;2023-04-25T03:00:44;99610.06;;;24.61;22.76
42691;BME280;28306;55.744;37.578;2023-04-25T03:03:10;99613.06;;;24.64;22.68
42691;BME280;28306;55.744;37.578;2023-04-25T03:05:36;99610.38;;;24.70;22.13
42691;BME280;28306;55.744;37.578;2023-04-25T03:08:01;99608.78;;;24.79;22.01
42691;BME280;28306;55.744;37.578;2023-04-25T03:10:28;99615.63;;;24.87;22.13
42691;BME280;28306;55.744;37.578;2023-04-25T03:12:56;99614.03;;;24.96;21.89
42691;BME280;28306;55.744;37.578;2023-04-25T03:15:21;99617.59;;;25.07;21.83
42691;BME280;28306;55.744;37.578;2023-04-25T03:17:47;99612.97;;;25.12;21.72
42691;BME280;28306;55.744;37.578;2023-04-25T03:20:12;99617.59;;;25.12;22.25
42691;BME280;28306;55.744;37.578;2023-04-25T03:22:38;99624.69;;;25.13;22.49
42691;BME280;28306;55.744;37.578;2023-04-25T03:25:04;99627.41;;;25.13;22.25
42691;BME280;28306;55.744;37.578;2023-04-25T03:27:30;99626.88;;;25.16;21.96
42691;BME280;28306;55.744;37.578;2023-04-25T03:29:55;99622.00;;;25.23;21.86
42691;BME280;28306;55.744;37.578;2023-04-25T03:32:21;99626.63;;;25.28;22.00
42691;BME280;28306;55.744;37.578;2023-04-25T03:34:46;99630.78;;;25.41;21.67
42691;BME280;28306;55.744;37.578;2023-04-25T03:37:12;99632.16;;;25.48;21.69
42691;BME280;28306;55.744;37.578;2023-04-25T03:39:37;99627.50;;;25.44;21.54
42691;BME280;28306;55.744;37.578;2023-04-25T03:42:03;99632.41;;;25.42;21.92
42691;BME280;28306;55.744;37.578;2023-04-25T03:44:32;99632.41;;;25.42;21.60
42691;BME280;28306;55.744;37.578;2023-04-25T03:46:58;99634.09;;;25.58;21.34
42691;BME280;28306;55.744;37.578;2023-04-25T03:49:24;99634.94;;;25.74;21.30
42691;BME280;28306;55.744;37.578;2023-04-25T03:51:57;99626.75;;;25.89;21.52
42691;BME280;28306;55.744;37.578;2023-04-25T03:54:22;99624.03;;;25.95;21.57
42691;BME280;28306;55.744;37.578;2023-04-25T03:57:03;99625.91;;;25.89;21.65
42691;BME280;28306;55.744;37.578;2023-04-25T03:59:32;99625.09;;;25.78;21.60
42691;BME280;28306;55.744;37.578;2023-04-25T04:01:58;99622.91;;;25.75;21.89
42691;BME280;28306;55.744;37.578;2023-04-25T04:04:24;99630.81;;;25.66;21.62
42691;BME280;28306;55.744;37.578;2023-04-25T04:06:49;99621.28;;;25.64;22.20
42691;BME280;28306;55.744;37.578;2023-04-25T04:09:21;99621.81;;;25.61;21.74
42691;BME280;28306;55.744;37.578;2023-04-25T04:11:47;99619.94;;;25.61;21.61
42691;BME280;28306;55.744;37.578;2023-04-25T04:14:12;99620.75;;;25.77;21.81
42691;BME280;28306;55.744;37.578;2023-04-25T04:16:43;99611.75;;;25.92;21.80
42691;BME280;28306;55.744;37.578;2023-04-25T04:19:08;99614.50;;;26.02;21.55
42691;BME280;28306;55.744;37.578;2023-04-25T04:21:35;99621.84;;;26.17;21.84
42691;BME280;28306;55.744;37.578;2023-04-25T04:24:02;99619.13;;;26.12;21.80
42691;BME280;28306;55.744;37.578;2023-04-25T04:26:32;99617.78;;;26.04;21.60
42691;BME280;28306;55.744;37.578;2023-04-25T04:29:12;99626.22;;;26.13;21.85
42691;BME280;28306;55.744;37.578;2023-04-25T04:31:55;99624.31;;;26.08;21.43
42691;BME280;28306;55.744;37.578;2023-04-25T04:34:20;99621.88;;;26.07;21.74
42691;BME280;28306;55.744;37.578;2023-04-25T04:36:46;99624.31;;;26.03;21.77
42691;BME280;28306;55.744;37.578;2023-04-25T04:39:12;99625.69;;;26.06;21.81
42691;BME280;28306;55.744;37.578;2023-04-25T04:41:55;99629.78;;;26.08;21.53
42691;BME280;28306;55.744;37.578;2023-04-25T04:44:43;99632.75;;;26.17;21.73
42691;BME280;28306;55.744;37.578;2023-04-25T04:47:24;99629.47;;;26.31;21.42
42691;BME280;28306;55.744;37.578;2023-04-25T04:50:02;99625.91;;;26.35;21.75
42691;BME280;28306;55.744;37.578;2023-04-25T04:52:56;99622.13;;;26.21;22.08
42691;BME280;28306;55.744;37.578;2023-04-25T04:55:40;99624.88;;;26.05;21.92
42691;BME280;28306;55.744;37.578;2023-04-25T04:58:26;99621.84;;;25.92;22.12
42691;BME280;28306;55.744;37.578;2023-04-25T05:01:15;99617.75;;;25.79;22.60
42691;BME280;28306;55.744;37.578;2023-04-25T05:04:02;99615.28;;;25.72;22.54
42691;BME280;28306;55.744;37.578;2023-04-25T05:07:00;99618.56;;;25.84;22.41
42691;BME280;28306;55.744;37.578;2023-04-25T05:09:52;99614.22;;;25.83;22.57
42691;BME280;28306;55.744;37.578;2023-04-25T05:12:44;99618.00;;;25.67;22.52
42691;BME280;28306;55.744;37.578;2023-04-25T05:15:35;99613.38;;;25.62;22.54
42691;BME280;28306;55.744;37.578;2023-04-25T05:18:21;99612.56;;;25.72;22.45
42691;BME280;28306;55.744;37.578;2023-04-25T05:21:03;99609.56;;;25.73;22.85
42691;BME280;28306;55.744;37.578;2023-04-25T05:23:44;99613.09;;;25.69;22.33
42691;BME280;28306;55.744;37.578;2023-04-25T05:26:28;99608.47;;;25.75;22.90
42691;BME280;28306;55.744;37.578;2023-04-25T05:29:22;99616.94;;;25.88;22.16
42691;BME280;28306;55.744;37.578;2023-04-25T05:32:01;99599.78;;;26.03;21.88
42691;BME280;28306;55.744;37.578;2023-04-25T05:34:28;99602.50;;;26.14;21.80
42691;BME280;28306;55.744;37.578;2023-04-25T05:37:00;99598.38;;;26.26;21.87
42691;BME280;28306;55.744;37.578;2023-04-25T05:39:26;99600.84;;;26.23;21.68
42691;BME280;28306;55.744;37.578;2023-04-25T05:42:14;99598.66;;;26.25;22.03
42691;BME280;28306;55.744;37.578;2023-04-25T05:44:58;99603.31;;;26.24;21.64
42691;BME280;28306;55.744;37.578;2023-04-25T05:47:35;99606.28;;;26.33;21.69
42691;BME280;28306;55.744;37.578;2023-04-25T05:50:30;99594.25;;;26.39;21.65
42691;BME280;28306;55.744;37.578;2023-04-25T05:53:11;99590.47;;;26.35;21.71
42691;BME280;28306;55.744;37.578;2023-04-25T05:55:40;99593.75;;;26.32;22.08
42691;BME280;28306;55.744;37.578;2023-04-25T05:58:31;99586.63;;;26.31;21.91
42691;BME280;28306;55.744;37.578;2023-04-25T06:00:58;99595.91;;;26.35;21.87
42691;BME280;28306;55.744;37.578;2023-04-25T06:03:24;99590.19;;;26.37;21.80
42691;BME280;28306;55.744;37.578;2023-04-25T06:05:50;99590.97;;;26.42;21.84
42691;BME280;28306;55.744;37.578;2023-04-25T06:08:15;99587.13;;;26.54;22.06
42691;BME280;28306;55.744;37.578;2023-04-25T06:10:41;99580.81;;;26.64;21.72
42691;BME280;28306;55.744;37.578;2023-04-25T06:13:07;99579.69;;;26.80;21.37
42691;BME280;28306;55.744;37.578;2023-04-25T06:15:34;99573.38;;;26.90;21.25
42691;BME280;28306;55.744;37.578;2023-04-25T06:18:00;99579.56;;;27.06;21.58
42691;BME280;28306;55.744;37.578;2023-04-25T06:20:26;99576.47;;;27.23;20.96
42691;BME280;28306;55.744;37.578;2023-04-25T06:22:54;99565.56;;;27.18;20.86
42691;BME280;28306;55.744;37.578;2023-04-25T06:25:25;99565.69;;;26.97;21.28
42691;BME280;28306;55.744;37.578;2023-04-25T06:27:51;99562.75;;;26.88;21.08
42691;BME280;28306;55.744;37.578;2023-04-25T06:30:16;99558.09;;;26.89;21.28
42691;BME280;28306;55.744;37.578;2023-04-25T06:32:49;99548.25;;;26.93;21.07
42691;BME280;28306;55.744;37.578;2023-04-25T06:35:15;99549.56;;;26.95;21.20
42691;BME280;28306;55.744;37.578;2023-04-25T06:37:40;99557.47;;;26.97;20.98
42691;BME280;28306;55.744;37.578;2023-04-25T06:40:06;99558.88;;;26.94;21.07
42691;BME280;28306;55.744;37.578;2023-04-25T06:42:32;99557.25;;;26.93;20.80
42691;BME280;28306;55.744;37.578;2023-04-25T06:44:58;99563.47;;;27.04;20.91
42691;BME280;28306;55.744;37.578;2023-04-25T06:47:24;99557.13;;;27.14;20.73
42691;BME280;28306;55.744;37.578;2023-04-25T06:49:49;99567.44;;;27.22;20.92
42691;BME280;28306;55.744;37.578;2023-04-25T06:52:15;99563.56;;;27.28;20.84
42691;BME280;28306;55.744;37.578;2023-04-25T06:54:43;99563.00;;;27.37;20.46
42691;BME280;28306;55.744;37.578;2023-04-25T06:57:29;99557.22;;;27.43;20.47
42691;BME280;28306;55.744;37.578;2023-04-25T07:00:04;99560.69;;;27.54;20.31
42691;BME280;28306;55.744;37.578;2023-04-25T07:02:32;99551.66;;;27.54;20.38
42691;BME280;28306;55.744;37.578;2023-04-25T07:04:57;99550.63;;;27.49;20.49
42691;BME280;28306;55.744;37.578;2023-04-25T07:07:26;99562.66;;;27.48;20.09
42691;BME280;28306;55.744;37.578;2023-04-25T07:09:57;99556.38;;;27.48;20.24
42691;BME280;28306;55.744;37.578;2023-04-25T07:12:23;99563.72;;;27.47;20.25
42691;BME280;28306;55.744;37.578;2023-04-25T07:14:48;99556.09;;;27.49;20.20
42691;BME280;28306;55.744;37.578;2023-04-25T07:17:14;99550.78;;;27.63;20.09
42691;BME280;28306;55.744;37.578;2023-04-25T07:19:40;99552.63;;;27.68;20.03
42691;BME280;28306;55.744;37.578;2023-04-25T07:22:07;99549.09;;;27.67;20.01
42691;BME280;28306;55.744;37.578;2023-04-25T07:24:34;99552.91;;;27.72;20.32
42691;BME280;28306;55.744;37.578;2023-04-25T07:27:00;99550.88;;;27.82;20.17
42691;BME280;28306;55.744;37.578;2023-04-25T07:29:50;99549.53;;;27.80;19.67
42691;BME280;28306;55.744;37.578;2023-04-25T07:32:16;99549.81;;;27.78;19.80
42691;BME280;28306;55.744;37.578;2023-04-25T07:34:42;99554.50;;;27.78;19.93
42691;BME280;28306;55.744;37.578;2023-04-25T07:37:11;99555.53;;;27.82;19.54
42691;BME280;28306;55.744;37.578;2023-04-25T07:39:48;99539.66;;;27.84;19.80
42691;BME280;28306;55.744;37.578;2023-04-25T07:42:14;99552.50;;;27.83;19.55
42691;BME280;28306;55.744;37.578;2023-04-25T07:44:42;99549.47;;;27.85;19.66
42691;BME280;28306;55.744;37.578;2023-04-25T07:47:10;99551.06;;;27.91;19.77
42691;BME280;28306;55.744;37.578;2023-04-25T07:49:36;99550.78;;;27.98;19.41
42691;BME280;28306;55.744;37.578;2023-04-25T07:52:05;99551.53;;;28.03;19.48
42691;BME280;28306;55.744;37.578;2023-04-25T07:54:35;99550.16;;;28.06;19.39
42691;BME280;28306;55.744;37.578;2023-04-25T07:57:09;99552.34;;;28.04;19.63
42691;BME280;28306;55.744;37.578;2023-04-25T07:59:36;99544.09;;;28.09;19.50
42691;BME280;28306;55.744;37.578;2023-04-25T08:02:03;99549.69;;;28.23;19.42
42691;BME280;28306;55.744;37.578;2023-04-25T08:04:29;99550.72;;;28.27;19.29
42691;BME280;28306;55.744;37.578;2023-04-25T08:06:59;99549.50;;;28.38;19.57
42691;BME280;28306;55.744;37.578;2023-04-25T08:09:28;99550.63;;;28.37;19.28
42691;BME280;28306;55.744;37.578;2023-04-25T08:11:55;99545.16;;;28.37;19.51
42691;BME280;28306;55.744;37.578;2023-04-25T08:14:26;99547.34;;;28.35;19.23
42691;BME280;28306;55.744;37.578;2023-04-25T08:16:52;99549.63;;;28.28;19.40
42691;BME280;28306;55.744;37.578;2023-04-25T08:19:18;99541.41;;;28.28;19.55
42691;BME280;28306;55.744;37.578;2023-04-25T08:21:45;99540.84;;;28.31;19.68
42691;BME280;28306;55.744;37.578;2023-04-25T08:24:15;99546.19;;;28.41;19.44
42691;BME280;28306;55.744;37.578;2023-04-25T08:26:41;99549.38;;;28.49;19.47
42691;BME280;28306;55.744;37.578;2023-04-25T08:29:09;99548.50;;;28.53;19.41
42691;BME280;28306;55.744;37.578;2023-04-25T08:31:38;99541.09;;;28.54;19.37
42691;BME280;28306;55.744;37.578;2023-04-25T08:34:04;99532.91;;;28.54;19.55
42691;BME280;28306;55.744;37.578;2023-04-25T08:36:38;99539.47;;;28.58;19.49
42691;BME280;28306;55.744;37.578;2023-04-25T08:39:05;99543.84;;;28.59;19.54
42691;BME280;28306;55.744;37.578;2023-04-25T08:41:38;99537.22;;;28.60;19.37
42691;BME280;28306;55.744;37.578;2023-04-25T08:44:06;99531.00;;;28.54;19.25
42691;BME280;28306;55.744;37.578;2023-04-25T08:46:35;99541.19;;;28.49;19.43
42691;BME280;28306;55.744;37.578;2023-04-25T08:49:13;99528.38;;;28.44;19.52
42691;BME280;28306;55.744;37.578;2023-04-25T08:51:45;99531.19;;;28.39;19.84
42691;BME280;28306;55.744;37.578;2023-04-25T08:54:12;99525.63;;;28.44;19.43
42691;BME280;28306;55.744;37.578;2023-04-25T08:56:38;99526.44;;;28.45;19.31
42691;BME280;28306;55.744;37.578;2023-04-25T08:59:06;99520.44;;;28.43;19.41
42691;BME280;28306;55.744;37.578;2023-04-25T09:01:35;99516.63;;;28.44;19.27
42691;BME280;28306;55.744;37.578;2023-04-25T09:04:01;99511.94;;;28.44;19.17
42691;BME280;28306;55.744;37.578;2023-04-25T09:06:27;99520.09;;;28.49;19.04
42691;BME280;28306;55.744;37.578;2023-04-25T09:08:53;99516.03;;;28.47;18.62
42691;BME280;28306;55.744;37.578;2023-04-25T09:11:19;99498.75;;;28.51;19.03
42691;BME280;28306;55.744;37.578;2023-04-25T09:13:45;99506.88;;;28.56;18.72
42691;BME280;28306;55.744;37.578;2023-04-25T09:16:39;99501.69;;;28.55;18.93
42691;BME280;28306;55.744;37.578;2023-04-25T09:19:42;99494.47;;;28.64;19.27
42691;BME280;28306;55.744;37.578;2023-04-25T09:22:21;99501.94;;;28.77;18.64
42691;BME280;28306;55.744;37.578;2023-04-25T09:24:48;99504.97;;;28.76;18.26
42691;BME280;28306;55.744;37.578;2023-04-25T09:27:19;99505.66;;;28.68;18.26
42691;BME280;28306;55.744;37.578;2023-04-25T09:29:57;99495.38;;;28.60;18.12
42691;BME280;28306;55.744;37.578;2023-04-25T09:32:30;99500.25;;;28.63;18.57
42691;BME280;28306;55.744;37.578;2023-04-25T09:34:57;99490.88;;;28.69;18.32
42691;BME280;28306;55.744;37.578;2023-04-25T09:37:25;99464.16;;;28.61;18.42
42691;BME280;28306;55.744;37.578;2023-04-25T09:40:09;99495.25;;;28.89;18.45
42691;BME280;28306;55.744;37.578;2023-04-25T09:42:51;99488.13;;;28.88;18.14
42691;BME280;28306;55.744;37.578;2023-04-25T09:45:17;99485.81;;;28.76;18.41
42691;BME280;28306;55.744;37.578;2023-04-25T09:47:43;99486.72;;;28.71;18.17
42691;BME280;28306;55.744;37.578;2023-04-25T09:50:14;99483.31;;;28.61;18.54
42691;BME280;28306;55.744;37.578;2023-04-25T09:52:42;99484.97;;;28.56;18.42
42691;BME280;28306;55.744;37.578;2023-04-25T09:55:21;99479.28;;;28.53;18.58
42691;BME280;28306;55.744;37.578;2023-04-25T09:57:47;99474.31;;;28.55;18.55
42691;BME280;28306;55.744;37.578;2023-04-25T10:00:13;99474.03;;;28.56;18.64
42691;BME280;28306;55.744;37.578;2023-04-25T10:02:45;99473.34;;;28.46;18.71
42691;BME280;28306;55.744;37.578;2023-04-25T10:05:24;99471.72;;;28.45;18.76
42691;BME280;28306;55.744;37.578;2023-04-25T10:07:50;99468.63;;;28.51;18.80
42691;BME280;28306;55.744;37.578;2023-04-25T10:10:16;99461.16;;;28.57;18.60
42691;BME280;28306;55.744;37.578;2023-04-25T10:12:42;99477.47;;;28.67;18.52
42691;BME280;28306;55.744;37.578;2023-04-25T10:15:09;99473.00;;;28.71;18.49
42691;BME280;28306;55.744;37.578;2023-04-25T10:17:35;99466.06;;;28.79;18.27
42691;BME280;28306;55.744;37.578;2023-04-25T10:20:04;99466.91;;;28.80;18.37
42691;BME280;28306;55.744;37.578;2023-04-25T10:22:37;99461.63;;;28.83;18.35
42691;BME280;28306;55.744;37.578;2023-04-25T10:25:03;99450.09;;;28.86;18.41
42691;BME280;28306;55.744;37.578;2023-04-25T10:27:30;99449.19;;;28.91;18.01
42691;BME280;28306;55.744;37.578;2023-04-25T10:32:32;99449.50;;;28.89;18.22
42691;BME280;28306;55.744;37.578;2023-04-25T10:35:04;99449.00;;;28.87;17.98
42691;BME280;28306;55.744;37.578;2023-04-25T10:37:35;99435.66;;;28.81;17.91
42691;BME280;28306;55.744;37.578;2023-04-25T10:40:07;99439.81;;;28.78;18.11
42691;BME280;28306;55.744;37.578;2023-04-25T10:42:33;99435.44;;;28.77;18.25
42691;BME280;28306;55.744;37.578;2023-04-25T10:45:02;99440.31;;;28.80;18.17
42691;BME280;28306;55.744;37.578;2023-04-25T10:47:36;99431.31;;;28.80;18.04
42691;BME280;28306;55.744;37.578;2023-04-25T10:50:08;99421.66;;;28.82;18.14
42691;BME280;28306;55.744;37.578;2023-04-25T10:52:34;99427.19;;;28.96;18.21
42691;BME280;28306;55.744;37.578;2023-04-25T10:54:59;99423.28;;;29.02;17.84
42691;BME280;28306;55.744;37.578;2023-04-25T10:59:58;99411.28;;;28.98;17.82
42691;BME280;28306;55.744;37.578;2023-04-25T11:02:25;99410.66;;;29.01;18.08
42691;BME280;28306;55.744;37.578;2023-04-25T11:04:51;99397.72;;;29.07;18.00
42691;BME280;28306;55.744;37.578;2023-04-25T11:07:19;99404.31;;;29.06;18.06
42691;BME280;28306;55.744;37.578;2023-04-25T11:09:49;99390.00;;;29.09;17.95
42691;BME280;28306;55.744;37.578;2023-04-25T11:12:14;99391.03;;;29.13;17.61
42691;BME280;28306;55.744;37.578;2023-04-25T11:14:41;99390.53;;;29.11;17.72
42691;BME280;28306;55.744;37.578;2023-04-25T11:17:06;99387.69;;;29.16;17.94
42691;BME280;28306;55.744;37.578;2023-04-25T11:19:32;99386.03;;;29.20;17.44
42691;BME280;28306;55.744;37.578;2023-04-25T11:21:58;99383.56;;;29.19;17.65
42691;BME280;28306;55.744;37.578;2023-04-25T11:24:31;99388.47;;;29.22;17.93
42691;BME280;28306;55.744;37.578;2023-04-25T11:27:00;99378.09;;;29.33;17.67
42691;BME280;28306;55.744;37.578;2023-04-25T11:29:28;99378.03;;;29.38;17.77
42691;BME280;28306;55.744;37.578;2023-04-25T11:31:54;99370.91;;;29.37;17.62
42691;BME280;28306;55.744;37.578;2023-04-25T11:34:23;99372.63;;;29.33;17.46
42691;BME280;28306;55.744;37.578;2023-04-25T11:36:49;99367.25;;;29.27;17.64
42691;BME280;28306;55.744;37.578;2023-04-25T11:39:15;99358.63;;;29.20;17.72
42691;BME280;28306;55.744;37.578;2023-04-25T11:41:41;99356.69;;;29.21;17.72
42691;BME280;28306;55.744;37.578;2023-04-25T11:44:07;99347.94;;;29.19;17.81
42691;BME280;28306;55.744;37.578;2023-04-25T11:46:35;99361.41;;;29.15;17.83
42691;BME280;28306;55.744;37.578;2023-04-25T11:49:01;99350.75;;;29.13;17.79
42691;BME280;28306;55.744;37.578;2023-04-25T11:51:26;99338.50;;;29.11;17.84
42691;BME280;28306;55.744;37.578;2023-04-25T11:53:52;99344.94;;;29.01;17.82
42691;BME280;28306;55.744;37.578;2023-04-25T11:56:18;99339.66;;;28.91;17.72
42691;BME280;28306;55.744;37.578;2023-04-25T11:59:00;99346.44;;;28.80;17.82
42691;BME280;28306;55.744;37.578;2023-04-25T12:01:29;99342.25;;;28.82;17.95
42691;BME280;28306;55.744;37.578;2023-04-25T12:03:55;99336.19;;;28.85;17.97
42691;BME280;28306;55.744;37.578;2023-04-25T12:06:21;99322.19;;;28.87;17.96
42691;BME280;28306;55.744;37.578;2023-04-25T12:11:26;99321.00;;;28.93;18.01
42691;BME280;28306;55.744;37.578;2023-04-25T12:13:52;99311.56;;;28.99;17.91
42691;BME280;28306;55.744;37.578;2023-04-25T12:16:18;99320.69;;;28.94;17.77
42691;BME280;28306;55.744;37.578;2023-04-25T12:18:43;99303.56;;;28.89;18.06
42691;BME280;28306;55.744;37.578;2023-04-25T12:21:09;99309.13;;;28.98;17.89
42691;BME280;28306;55.744;37.578;2023-04-25T12:23:34;99301.25;;;29.10;17.68
42691;BME280;28306;55.744;37.578;2023-04-25T12:26:03;99302.19;;;29.19;17.85
42691;BME280;28306;55.744;37.578;2023-04-25T12:28:29;99299.78;;;29.32;17.54
42691;BME280;28306;55.744;37.578;2023-04-25T12:33:26;99297.78;;;29.18;17.83
42691;BME280;28306;55.744;37.578;2023-04-25T12:35:55;99284.31;;;29.08;17.90
42691;BME280;28306;55.744;37.578;2023-04-25T12:40:46;99279.34;;;29.10;17.82
42691;BME280;28306;55.744;37.578;2023-04-25T12:43:12;99271.00;;;29.01;17.98
42691;BME280;28306;55.744;37.578;2023-04-25T12:45:37;99272.22;;;29.09;18.05
42691;BME280;28306;55.744;37.578;2023-04-25T12:48:03;99262.47;;;29.03;17.90
42691;BME280;28306;55.744;37.578;2023-04-25T12:50:28;99263.91;;;29.00;18.11
42691;BME280;28306;55.744;37.578;2023-04-25T12:52:54;99255.72;;;29.14;17.84
42691;BME280;28306;55.744;37.578;2023-04-25T12:55:19;99256.00;;;29.40;17.96
42691;BME280;28306;55.744;37.578;2023-04-25T12:57:45;99255.41;;;29.57;17.60
42691;BME280;28306;55.744;37.578;2023-04-25T13:00:10;99243.19;;;29.77;17.64
42691;BME280;28306;55.744;37.578;2023-04-25T13:02:39;99242.00;;;30.06;17.29
42691;BME280;28306;55.744;37.578;2023-04-25T13:05:05;99247.28;;;30.62;17.11
42691;BME280;28306;55.744;37.578;2023-04-25T13:07:30;99241.06;;;31.10;16.67
42691;BME280;28306;55.744;37.578;2023-04-25T13:09:56;99230.66;;;31.38;16.52
42691;BME280;28306;55.744;37.578;2023-04-25T13:12:21;99231.38;;;31.88;16.11
42691;BME280;28306;55.744;37.578;2023-04-25T13:14:47;99231.25;;;31.93;16.16